Time;durP1;ratioP1;P1;durP2;ratioP2;P2;SDS_P1;SDS_P2;PMS_P1;PMS_P2;Temp;Humidity;BMP_temperature;BMP_pressure;BME280_temperature;BME280_humidity;BME280_pressure;Samples;Min_cycle;Max_cycle;Signal;HPM_P1;HPM_P2
2021/07/16 00:02:09;;;;;;;;;10.75;7.50;;;;;;;;4585613;30;46271;-79
2021/07/16 00:04:34;;;;;;;;;7.75;7.50;;;;;;;;4603412;30;47303;-80
2021/07/16 00:14:10;;;;;;;;;11.50;9.25;;;;;;;;4534908;31;46868;-79
2021/07/16 00:16:35;;;;;;;;;9.75;9.50;;;;;;;;4537500;31;45619;-80
2021/07/16 00:22:14;;;;;;;;;10.75;8.50;;;;;;;;4531508;31;45413;-80
2021/07/16 00:25:17;;;;;;;;;8.00;8.00;;;;;;;;4547059;30;46631;-79
2021/07/16 00:28:01;;;;;;;;;11.00;10.00;;;;;;;;4542359;31;47010;-80
2021/07/16 00:30:26;;;;;;;;;12.25;10.00;;;;;;;;4530507;31;46071;-80
2021/07/16 00:32:51;;;;;;;;;14.50;11.00;;;;;;;;4555252;31;45612;-80
2021/07/16 00:35:16;;;;;;;;;14.50;10.25;;;;;;;;4524678;31;48166;-80
2021/07/16 00:37:42;;;;;;;;;9.50;9.50;;;;;;;;4540465;31;45638;-82
2021/07/16 00:43:21;;;;;;;;;15.00;12.25;;;;;;;;4552089;31;45747;-79
2021/07/16 00:45:47;;;;;;;;;9.50;9.50;;;;;;;;4559327;30;45720;-79
2021/07/16 00:48:12;;;;;;;;;9.75;9.75;;;;;;;;4634413;30;45558;-78
2021/07/16 00:50:40;;;;;;;;;12.50;11.00;;;;;;;;4637238;30;45638;-79
2021/07/16 01:02:26;;;;;;;;;12.75;11.00;;;;;;;;4540398;31;45826;-78
2021/07/16 01:11:13;;;;;;;;;12.00;11.00;;;;;;;;4515484;31;45544;-79
2021/07/16 01:14:01;;;;;;;;;11.00;11.00;;;;;;;;4496397;31;45655;-78
2021/07/16 01:16:26;;;;;;;;;10.00;8.50;;;;;;;;4496223;31;45767;-79
2021/07/16 01:18:52;;;;;;;;;12.75;9.00;;;;;;;;4494833;31;45674;-79
2021/07/16 01:24:41;;;;;;;;;12.25;8.00;;;;;;;;4486077;31;45593;-78
2021/07/16 01:27:06;;;;;;;;;13.25;9.75;;;;;;;;4489184;31;46286;-78
2021/07/16 01:29:32;;;;;;;;;11.25;9.75;;;;;;;;4500465;31;47466;-79
2021/07/16 01:31:57;;;;;;;;;9.00;8.25;;;;;;;;4501811;31;45604;-78
2021/07/16 01:34:22;;;;;;;;;15.00;11.50;;;;;;;;4529326;31;45821;-79
2021/07/16 01:36:47;;;;;;;;;10.75;10.75;;;;;;;;4651946;25;45543;-95
2021/07/16 01:39:13;;;;;;;;;9.75;9.75;;;;;;;;4709725;30;47005;-95
2021/07/16 01:41:39;;;;;;;;;9.50;8.00;;;;;;;;4696822;30;45412;-95
2021/07/16 01:49:51;;;;;;;;;9.25;9.25;;;;;;;;4619913;30;45589;-80
2021/07/16 01:55:25;;;;;;;;;11.50;8.00;;;;;;;;4616467;30;45421;-79
2021/07/16 01:57:54;;;;;;;;;10.75;9.00;;;;;;;;4620589;30;45879;-79
2021/07/16 02:00:23;;;;;;;;;10.25;8.00;;;;;;;;4599239;30;47496;-79
2021/07/16 02:02:56;;;;;;;;;7.00;7.00;;;;;;;;4608432;30;45422;-79
2021/07/16 02:05:22;;;;;;;;;9.75;7.50;;;;;;;;4615095;30;45829;-79
2021/07/16 02:07:47;;;;;;;;;7.00;6.75;;;;;;;;4615675;30;45706;-80
2021/07/16 02:10:13;;;;;;;;;12.00;9.50;;;;;;;;4601056;30;48250;-79
2021/07/16 02:12:39;;;;;;;;;12.50;8.75;;;;;;;;4615512;30;45661;-79
2021/07/16 02:15:30;;;;;;;;;9.50;9.50;;;;;;;;4622242;30;45532;-79
2021/07/16 02:17:55;;;;;;;;;9.50;7.50;;;;;;;;4603525;30;45723;-79
2021/07/16 02:20:38;;;;;;;;;;;;;;;;;;;;;
2021/07/16 02:23:22;;;;;;;;;12.50;9.25;;;;;;;;4616068;30;72950;-79
2021/07/16 02:25:47;;;;;;;;;10.25;8.00;;;;;;;;4628979;30;45521;-79
2021/07/16 02:28:18;;;;;;;;;12.75;9.75;;;;;;;;4673963;30;45596;-79
2021/07/16 02:30:43;;;;;;;;;12.00;9.00;;;;;;;;4683223;30;46245;-79
2021/07/16 02:39:20;;;;;;;;;12.00;9.50;;;;;;;;4611824;30;47367;-80
2021/07/16 02:41:45;;;;;;;;;11.50;8.75;;;;;;;;4605030;30;47356;-79
2021/07/16 02:44:11;;;;;;;;;8.75;8.75;;;;;;;;4612405;30;45680;-79
2021/07/16 02:46:37;;;;;;;;;10.50;9.00;;;;;;;;4613823;30;45875;-79
2021/07/16 02:49:02;;;;;;;;;10.50;7.75;;;;;;;;4601295;30;45700;-80
2021/07/16 02:51:29;;;;;;;;;8.25;6.00;;;;;;;;4614806;30;46127;-79
2021/07/16 02:57:03;;;;;;;;;8.00;8.00;;;;;;;;4614630;30;45455;-79
2021/07/16 02:59:29;;;;;;;;;10.75;8.50;;;;;;;;4601185;30;45577;-79
2021/07/16 03:01:55;;;;;;;;;10.25;7.00;;;;;;;;4616977;30;46841;-79
2021/07/16 03:04:21;;;;;;;;;5.00;4.25;;;;;;;;4596655;30;45549;-79
2021/07/16 03:06:46;;;;;;;;;7.00;7.00;;;;;;;;4594177;30;45720;-79
2021/07/16 03:09:11;;;;;;;;;7.50;7.50;;;;;;;;4613005;30;45808;-79
2021/07/16 03:11:36;;;;;;;;;6.50;6.25;;;;;;;;4619228;30;46906;-79
2021/07/16 03:14:03;;;;;;;;;10.00;7.00;;;;;;;;4665325;30;45562;-79
2021/07/16 03:16:28;;;;;;;;;7.50;5.75;;;;;;;;4679307;30;45591;-79
2021/07/16 03:31:48;;;;;;;;;6.75;6.00;;;;;;;;4568237;30;47705;-79
2021/07/16 03:34:14;;;;;;;;;6.25;6.00;;;;;;;;4565978;30;46319;-79
2021/07/16 03:36:39;;;;;;;;;7.25;6.00;;;;;;;;4566419;30;45671;-79
2021/07/16 03:39:05;;;;;;;;;8.00;8.00;;;;;;;;4572838;31;45440;-79
2021/07/16 03:41:30;;;;;;;;;7.75;6.75;;;;;;;;4566192;31;45626;-79
2021/07/16 03:44:15;;;;;;;;;5.00;5.00;;;;;;;;4562225;30;45752;-79
2021/07/16 03:46:41;;;;;;;;;8.00;6.00;;;;;;;;4567047;31;45598;-79
2021/07/16 03:49:06;;;;;;;;;8.00;6.50;;;;;;;;4559006;31;45538;-79
2021/07/16 03:51:32;;;;;;;;;9.25;7.25;;;;;;;;4574027;31;45547;-79
2021/07/16 03:57:15;;;;;;;;;8.75;8.50;;;;;;;;4533319;31;53351;-78
2021/07/16 03:59:40;;;;;;;;;12.00;8.00;;;;;;;;4537918;31;45653;-79
2021/07/16 04:02:11;;;;;;;;;11.75;8.00;;;;;;;;4571307;30;47339;-78
2021/07/16 04:04:36;;;;;;;;;7.75;6.75;;;;;;;;4587691;30;47357;-78
2021/07/16 04:07:05;;;;;;;;;9.00;7.25;;;;;;;;4584569;30;45559;-78
2021/07/16 04:09:48;;;;;;;;;7.50;6.75;;;;;;;;4585094;30;46079;-78
2021/07/16 04:12:16;;;;;;;;;10.00;8.25;;;;;;;;4565492;30;45487;-78
2021/07/16 04:14:43;;;;;;;;;8.25;8.00;;;;;;;;4583815;30;45580;-78
2021/07/16 04:17:10;;;;;;;;;7.75;6.00;;;;;;;;4583236;30;45875;-78
2021/07/16 04:19:35;;;;;;;;;8.75;7.00;;;;;;;;4579724;30;47265;-80
2021/07/16 04:22:00;;;;;;;;;8.25;6.50;;;;;;;;4581175;30;46252;-79
2021/07/16 04:24:26;;;;;;;;;11.50;7.75;;;;;;;;4585170;30;45531;-80
2021/07/16 04:26:51;;;;;;;;;7.50;6.50;;;;;;;;4584558;30;45628;-79
2021/07/16 04:29:16;;;;;;;;;9.00;6.00;;;;;;;;4570276;30;46144;-80
2021/07/16 04:31:42;;;;;;;;;7.50;6.00;;;;;;;;4682494;24;46026;-94
2021/07/16 04:34:07;;;;;;;;;8.00;6.75;;;;;;;;4708255;24;47599;-79
2021/07/16 04:36:32;;;;;;;;;8.00;7.50;;;;;;;;4677163;30;45538;-79
2021/07/16 04:39:07;;;;;;;;;7.00;5.50;;;;;;;;4685454;30;45877;-79
2021/07/16 04:47:44;;;;;;;;;8.00;5.50;;;;;;;;4499967;31;46102;-79
2021/07/16 04:50:10;;;;;;;;;6.50;6.25;;;;;;;;4504563;31;45385;-79
2021/07/16 04:52:40;;;;;;;;;7.75;7.75;;;;;;;;4503349;31;45548;-79
2021/07/16 04:55:05;;;;;;;;;6.50;6.00;;;;;;;;4503207;31;46374;-79
2021/07/16 04:57:30;;;;;;;;;6.00;5.00;;;;;;;;4503948;31;62868;-78
2021/07/16 05:00:06;;;;;;;;;6.25;4.75;;;;;;;;4495728;31;45536;-79
2021/07/16 05:02:31;;;;;;;;;7.50;6.00;;;;;;;;4523466;31;45644;-79
2021/07/16 05:05:23;;;;;;;;;6.75;6.00;;;;;;;;4520611;31;45596;-78
2021/07/16 05:14:21;;;;;;;;;9.25;6.25;;;;;;;;4368543;32;45514;-79
2021/07/16 05:16:46;;;;;;;;;7.00;6.00;;;;;;;;4358345;32;46055;-79
2021/07/16 05:19:12;;;;;;;;;8.00;5.67;;;;;;;;4372482;32;47513;-79
2021/07/16 05:21:37;;;;;;;;;7.25;7.25;;;;;;;;4404632;31;45995;-79
2021/07/16 05:24:05;;;;;;;;;7.50;5.75;;;;;;;;4457280;31;45614;-79
2021/07/16 05:26:30;;;;;;;;;7.25;6.00;;;;;;;;4474331;31;45661;-79
2021/07/16 05:28:56;;;;;;;;;5.75;5.75;;;;;;;;4485925;31;45660;-79
2021/07/16 05:40:49;;;;;;;;;5.75;4.50;;;;;;;;4394461;32;45529;-79
2021/07/16 05:43:14;;;;;;;;;10.50;5.00;;;;;;;;4401088;32;45616;-79
2021/07/16 05:45:40;;;;;;;;;5.50;5.50;;;;;;;;4398368;32;45531;-79
2021/07/16 05:48:09;;;;;;;;;8.00;5.75;;;;;;;;4425044;31;47922;-79
2021/07/16 05:50:35;;;;;;;;;9.00;5.50;;;;;;;;4467221;31;45718;-80
2021/07/16 05:56:12;;;;;;;;;7.00;7.00;;;;;;;;4447020;31;46268;-79
2021/07/16 05:58:37;;;;;;;;;8.33;5.67;;;;;;;;4452831;31;47335;-78
2021/07/16 06:01:05;;;;;;;;;6.75;4.50;;;;;;;;4448001;31;46418;-79
2021/07/16 06:03:30;;;;;;;;;6.75;5.50;;;;;;;;4449092;31;45727;-79
2021/07/16 06:05:55;;;;;;;;;7.00;6.00;;;;;;;;4454612;31;45873;-79
2021/07/16 06:08:23;;;;;;;;;5.33;5.33;;;;;;;;4444104;31;46230;-79
2021/07/16 06:10:49;;;;;;;;;7.25;4.75;;;;;;;;4454011;31;45560;-79
2021/07/16 06:13:40;;;;;;;;;6.00;6.00;;;;;;;;4493735;31;45833;-79
2021/07/16 06:19:11;;;;;;;;;4.75;4.00;;;;;;;;4439797;31;46115;-79
2021/07/16 06:21:36;;;;;;;;;5.50;5.00;;;;;;;;4448336;31;45912;-78
2021/07/16 06:24:04;;;;;;;;;5.50;5.25;;;;;;;;4446263;31;46792;-79
2021/07/16 06:26:31;;;;;;;;;4.75;3.25;;;;;;;;4456133;31;46001;-80
2021/07/16 06:28:56;;;;;;;;;6.75;5.75;;;;;;;;4458255;31;45613;-81
2021/07/16 06:31:22;;;;;;;;;5.00;5.00;;;;;;;;4454082;31;57495;-81
2021/07/16 06:33:47;;;;;;;;;4.50;4.50;;;;;;;;4494825;31;45524;-79
2021/07/16 06:36:12;;;;;;;;;8.25;4.00;;;;;;;;4519310;31;45508;-80
2021/07/16 06:38:38;;;;;;;;;5.25;4.75;;;;;;;;4520368;31;45691;-78
2021/07/16 06:41:03;;;;;;;;;7.00;5.25;;;;;;;;4504896;31;45860;-76
2021/07/16 06:43:29;;;;;;;;;9.50;6.00;;;;;;;;4505484;31;46968;-77
2021/07/16 06:45:54;;;;;;;;;6.00;4.00;;;;;;;;4516554;31;45510;-76
2021/07/16 06:48:19;;;;;;;;;4.50;4.00;;;;;;;;4519657;31;46147;-79
2021/07/16 06:50:45;;;;;;;;;4.00;4.00;;;;;;;;4514338;31;46081;-76
2021/07/16 06:53:10;;;;;;;;;9.00;4.00;;;;;;;;4547874;30;45714;-79
2021/07/16 06:55:35;;;;;;;;;3.00;3.00;;;;;;;;4595231;30;45760;-78
2021/07/16 06:58:01;;;;;;;;;5.00;3.25;;;;;;;;4682236;30;46226;-78
2021/07/16 07:00:30;;;;;;;;;4.50;4.50;;;;;;;;4674099;30;45597;-78
2021/07/16 07:02:55;;;;;;;;;4.25;3.75;;;;;;;;4684270;30;45580;-78
2021/07/16 07:05:24;;;;;;;;;4.25;4.00;;;;;;;;4667675;30;45836;-76
2021/07/16 07:07:52;;;;;;;;;6.00;4.75;;;;;;;;4662484;30;46616;-79
2021/07/16 07:10:17;;;;;;;;;6.00;4.50;;;;;;;;4679019;30;47367;-78
2021/07/16 07:12:44;;;;;;;;;5.00;3.00;;;;;;;;4672421;30;45581;-79
2021/07/16 07:15:09;;;;;;;;;4.25;3.00;;;;;;;;4666659;30;45745;-78
2021/07/16 07:17:35;;;;;;;;;8.00;5.00;;;;;;;;4688961;30;46613;-79
2021/07/16 07:23:06;;;;;;;;;4.75;3.50;;;;;;;;4711726;24;45558;-93
2021/07/16 07:25:31;;;;;;;;;3.00;3.00;;;;;;;;4689994;30;45527;-94
2021/07/16 07:27:57;;;;;;;;;4.25;3.00;;;;;;;;4692788;30;45407;-93
2021/07/16 07:30:22;;;;;;;;;3.25;3.25;;;;;;;;4689915;29;45414;-93
2021/07/16 07:35:23;;;;;;;;;4.00;4.00;;;;;;;;3058610;28;46944;-79
2021/07/16 07:37:54;;;;;;;;;4.25;4.25;;;;;;;;4703295;30;47123;-77
2021/07/16 07:43:49;;;;;;;;;3.00;3.00;;;;;;;;4702381;30;45572;-78
2021/07/16 07:46:15;;;;;;;;;3.75;3.00;;;;;;;;4685731;30;45609;-78
2021/07/16 07:48:40;;;;;;;;;3.00;2.00;;;;;;;;4689648;30;47164;-78
2021/07/16 07:51:05;;;;;;;;;6.50;3.50;;;;;;;;4708823;30;45803;-77
2021/07/16 07:53:31;;;;;;;;;2.75;2.75;;;;;;;;4684456;30;45492;-78
2021/07/16 07:55:56;;;;;;;;;3.25;2.75;;;;;;;;4703985;30;45492;-78
2021/07/16 07:58:21;;;;;;;;;3.00;3.00;;;;;;;;4706253;30;45378;-79
2021/07/16 08:00:47;;;;;;;;;2.25;2.25;;;;;;;;4686985;30;45492;-78
2021/07/16 08:03:12;;;;;;;;;3.75;2.00;;;;;;;;4682322;30;46739;-78
2021/07/16 08:05:37;;;;;;;;;3.25;2.00;;;;;;;;4704947;30;45609;-78
2021/07/16 08:08:03;;;;;;;;;4.25;2.00;;;;;;;;4688167;30;46820;-78
2021/07/16 08:10:28;;;;;;;;;2.00;2.00;;;;;;;;4706082;30;45301;-77
2021/07/16 08:12:53;;;;;;;;;4.00;3.00;;;;;;;;4705739;30;45478;-78
2021/07/16 08:15:19;;;;;;;;;3.00;3.00;;;;;;;;4707654;30;45339;-78
2021/07/16 08:17:44;;;;;;;;;2.00;2.00;;;;;;;;4709286;30;47889;-79
2021/07/16 08:20:09;;;;;;;;;3.25;2.00;;;;;;;;4705817;30;45497;-78
2021/07/16 08:22:39;;;;;;;;;2.00;2.00;;;;;;;;4694948;30;45584;-78
2021/07/16 08:25:12;;;;;;;;;3.50;2.75;;;;;;;;4703238;30;45642;-78
2021/07/16 08:27:38;;;;;;;;;5.25;2.50;;;;;;;;4690040;30;47540;-78
2021/07/16 08:30:04;;;;;;;;;2.25;1.25;;;;;;;;4713114;30;45492;-77
2021/07/16 08:32:29;;;;;;;;;3.75;2.50;;;;;;;;4688903;30;45614;-77
2021/07/16 08:34:55;;;;;;;;;2.75;2.75;;;;;;;;4688895;30;46015;-78
2021/07/16 08:37:20;;;;;;;;;3.25;2.50;;;;;;;;4700084;30;45590;-78
2021/07/16 08:39:45;;;;;;;;;3.00;1.25;;;;;;;;4710339;30;45684;-80
2021/07/16 08:42:16;;;;;;;;;3.00;3.00;;;;;;;;4698142;30;45460;-81
2021/07/16 08:44:42;;;;;;;;;3.75;1.75;;;;;;;;4696763;30;45551;-80
2021/07/16 08:47:10;;;;;;;;;1.00;1.00;;;;;;;;4710355;30;46077;-80
2021/07/16 08:49:38;;;;;;;;;1.50;1.00;;;;;;;;4688811;30;45824;-80
2021/07/16 08:52:04;;;;;;;;;1.75;1.50;;;;;;;;4707581;30;45532;-81
2021/07/16 08:54:30;;;;;;;;;4.00;1.50;;;;;;;;4700709;30;45795;-80
2021/07/16 08:56:55;;;;;;;;;2.25;2.25;;;;;;;;4705980;30;46288;-80
2021/07/16 08:59:21;;;;;;;;;2.25;1.00;;;;;;;;4703935;30;45589;-80
2021/07/16 09:01:50;;;;;;;;;1.00;1.00;;;;;;;;4690055;30;45601;-80
2021/07/16 09:06:50;;;;;;;;;1.00;1.00;;;;;;;;5255697;24;46023;-92
2021/07/16 09:26:04;;;;;;;;;2.75;2.25;;;;;;;;4592894;30;45643;-81
2021/07/16 09:28:24;;;;;;;;;1.75;1.75;;;;;;;;4550041;31;45629;-82
2021/07/16 09:30:55;;;;;;;;;4.50;1.75;;;;;;;;4555915;31;48214;-82
2021/07/16 09:33:20;;;;;;;;;2.00;2.00;;;;;;;;4557361;31;45604;-81
2021/07/16 09:35:46;;;;;;;;;5.00;3.75;;;;;;;;4560196;31;45596;-81
2021/07/16 09:38:14;;;;;;;;;5.75;3.00;;;;;;;;4556167;31;45808;-81
2021/07/16 09:40:45;;;;;;;;;4.00;3.00;;;;;;;;4557273;31;47822;-79
2021/07/16 10:17:37;;;;;;;;;1.50;1.50;;;;;;;;4804621;24;45529;-96
2021/07/16 10:20:02;;;;;;;;;5.00;2.75;;;;;;;;4700444;30;44838;-94
2021/07/16 10:22:28;;;;;;;;;3.00;3.00;;;;;;;;4705494;30;45559;-95
2021/07/16 10:24:53;;;;;;;;;5.00;3.75;;;;;;;;4701271;30;45438;-93
2021/07/16 10:27:18;;;;;;;;;2.25;2.25;;;;;;;;4700478;30;46399;-96
2021/07/16 10:29:47;;;;;;;;;5.00;4.25;;;;;;;;4702828;30;45492;-94
2021/07/16 10:34:50;;;;;;;;;3.50;3.50;;;;;;;;4923734;24;47168;-81
2021/07/16 10:37:43;;;;;;;;;4.00;4.00;;;;;;;;4667747;30;47986;-79
2021/07/16 10:46:32;;;;;;;;;6.25;4.50;;;;;;;;4673401;30;45759;-81
2021/07/16 10:49:17;;;;;;;;;7.75;4.25;;;;;;;;4668299;30;46406;-80
2021/07/16 10:57:52;;;;;;;;;7.00;6.50;;;;;;;;4793965;24;45790;-96
2021/07/16 11:13:54;;;;;;;;;6.25;5.25;;;;;;;;4652152;30;45572;-80
2021/07/16 11:43:28;;;;;;;;;7.75;6.00;;;;;;;;4708394;24;46799;-94
2021/07/16 11:45:53;;;;;;;;;5.00;4.67;;;;;;;;4976020;24;45228;-93
2021/07/16 11:48:21;;;;;;;;;7.00;5.50;;;;;;;;4704401;30;44803;-96
2021/07/16 11:50:50;;;;;;;;;9.50;6.75;;;;;;;;4683683;30;44841;-96
2021/07/16 11:53:37;;;;;;;;;8.75;5.25;;;;;;;;4714379;30;45495;-96
2021/07/16 11:56:33;;;;;;;;;7.25;7.00;;;;;;;;4711271;30;45490;-96
2021/07/16 11:58:59;;;;;;;;;9.50;7.25;;;;;;;;4708295;30;45169;-95
2021/07/16 12:01:24;;;;;;;;;7.00;7.00;;;;;;;;4714795;30;45334;-95
2021/07/16 12:06:21;;;;;;;;;9.50;8.75;;;;;;;;4674365;30;59912;-78
2021/07/16 12:08:47;;;;;;;;;8.50;8.25;;;;;;;;4675663;30;45729;-80
2021/07/16 12:14:27;;;;;;;;;8.00;7.00;;;;;;;;4589902;30;46443;-79
2021/07/16 12:38:00;;;;;;;;;9.25;7.00;;;;;;;;4708016;30;45599;-95
2021/07/16 12:40:26;;;;;;;;;10.75;9.25;;;;;;;;4707919;30;45611;-96
2021/07/16 13:03:39;;;;;;;;;8.75;8.25;;;;;;;;4684211;28;45671;-80
2021/07/16 13:06:17;;;;;;;;;14.00;9.50;;;;;;;;4680241;30;45671;-80
2021/07/16 13:08:42;;;;;;;;;9.00;8.50;;;;;;;;4701785;30;45653;-80
2021/07/16 13:13:42;;;;;;;;;13.50;10.50;;;;;;;;5165588;24;45587;-95
2021/07/16 13:16:12;;;;;;;;;11.67;8.00;;;;;;;;4709788;30;45532;-95
2021/07/16 13:34:08;;;;;;;;;13.25;10.50;;;;;;;;5224885;24;46160;-96
2021/07/16 13:36:33;;;;;;;;;11.00;8.50;;;;;;;;4682007;30;45694;-93
2021/07/16 13:38:58;;;;;;;;;10.75;10.75;;;;;;;;4675904;30;48101;-93
2021/07/16 13:41:23;;;;;;;;;10.75;9.00;;;;;;;;4672532;30;46040;-95
2021/07/16 13:43:51;;;;;;;;;14.00;10.00;;;;;;;;4690528;30;45465;-93
2021/07/16 13:46:17;;;;;;;;;12.50;11.50;;;;;;;;4685843;30;45666;-96
2021/07/16 13:51:22;;;;;;;;;11.00;11.00;;;;;;;;4698744;24;45400;-83
2021/07/16 13:53:48;;;;;;;;;10.50;9.50;;;;;;;;4681995;30;45390;-81
2021/07/16 13:56:13;;;;;;;;;14.75;11.25;;;;;;;;4688485;30;45819;-81
2021/07/16 13:58:38;;;;;;;;;12.50;10.00;;;;;;;;4694427;30;46370;-80
2021/07/16 14:01:03;;;;;;;;;12.25;10.00;;;;;;;;4679775;30;45885;-81
2021/07/16 14:03:29;;;;;;;;;11.00;10.25;;;;;;;;4694600;30;45457;-81
2021/07/16 14:05:54;;;;;;;;;11.00;7.75;;;;;;;;4684438;30;45502;-80
2021/07/16 14:08:20;;;;;;;;;10.00;9.25;;;;;;;;4678450;30;47850;-81
2021/07/16 14:10:47;;;;;;;;;12.00;9.25;;;;;;;;4695603;30;45606;-81
2021/07/16 14:13:12;;;;;;;;;10.00;7.25;;;;;;;;4679196;30;45552;-80
2021/07/16 14:15:38;;;;;;;;;12.00;9.75;;;;;;;;4679789;30;45619;-80
2021/07/16 14:18:03;;;;;;;;;9.75;9.75;;;;;;;;4697957;30;45471;-81
2021/07/16 14:20:28;;;;;;;;;10.50;9.00;;;;;;;;4716222;24;45381;-80
2021/07/16 14:22:55;;;;;;;;;13.50;9.00;;;;;;;;4689536;30;48681;-80
2021/07/16 14:25:21;;;;;;;;;9.25;9.25;;;;;;;;4692707;30;45457;-80
2021/07/16 14:27:46;;;;;;;;;14.00;10.25;;;;;;;;4686623;30;46013;-80
2021/07/16 14:30:13;;;;;;;;;12.00;9.25;;;;;;;;4687056;30;45575;-80
2021/07/16 14:32:39;;;;;;;;;10.50;9.25;;;;;;;;4688506;30;45578;-80
2021/07/16 14:35:05;;;;;;;;;9.25;9.25;;;;;;;;4671221;30;46796;-81
2021/07/16 14:37:31;;;;;;;;;10.00;9.00;;;;;;;;4667759;30;47624;-80
2021/07/16 14:39:58;;;;;;;;;10.75;8.50;;;;;;;;4682148;30;45667;-82
2021/07/16 14:42:23;;;;;;;;;9.00;8.00;;;;;;;;4668768;30;45489;-82
2021/07/16 14:44:48;;;;;;;;;12.50;10.00;;;;;;;;4688695;30;45887;-83
2021/07/16 14:47:14;;;;;;;;;9.00;8.25;;;;;;;;4686409;30;46402;-83
2021/07/16 14:49:39;;;;;;;;;11.50;9.75;;;;;;;;4673460;30;45835;-83
2021/07/16 14:52:05;;;;;;;;;12.50;8.75;;;;;;;;4683858;30;45679;-83
2021/07/16 14:54:30;;;;;;;;;11.00;10.00;;;;;;;;4682194;30;45510;-82
2021/07/16 14:56:55;;;;;;;;;9.75;8.25;;;;;;;;4672189;30;48019;-82
2021/07/16 14:59:21;;;;;;;;;9.00;8.00;;;;;;;;4686249;30;46333;-83
2021/07/16 15:01:46;;;;;;;;;12.00;9.00;;;;;;;;4686514;30;46439;-82
2021/07/16 15:04:11;;;;;;;;;11.50;8.50;;;;;;;;4681728;30;46232;-83
2021/07/16 15:06:37;;;;;;;;;8.00;8.00;;;;;;;;4681461;30;45574;-82
2021/07/16 15:09:02;;;;;;;;;10.25;9.50;;;;;;;;4688006;30;45759;-82
2021/07/16 15:11:30;;;;;;;;;9.50;8.25;;;;;;;;4686279;30;45850;-82
2021/07/16 15:13:55;;;;;;;;;8.00;8.00;;;;;;;;4670415;30;45384;-83
2021/07/16 15:16:20;;;;;;;;;10.75;10.00;;;;;;;;4686128;30;46287;-82
2021/07/16 15:18:45;;;;;;;;;8.25;8.25;;;;;;;;4683856;30;45553;-82
2021/07/16 15:21:11;;;;;;;;;9.25;9.00;;;;;;;;4689366;30;45796;-82
2021/07/16 15:23:36;;;;;;;;;9.00;9.00;;;;;;;;4688622;30;45565;-82
2021/07/16 15:26:01;;;;;;;;;10.50;8.00;;;;;;;;4678333;30;47170;-82
2021/07/16 15:28:27;;;;;;;;;10.00;9.00;;;;;;;;4678164;30;45641;-82
2021/07/16 15:30:53;;;;;;;;;11.50;10.00;;;;;;;;4688519;30;45844;-82
2021/07/16 15:33:18;;;;;;;;;10.75;8.25;;;;;;;;4691808;30;45625;-82
2021/07/16 15:35:44;;;;;;;;;10.25;8.00;;;;;;;;4690007;30;46321;-82
2021/07/16 15:38:09;;;;;;;;;11.25;10.75;;;;;;;;4687346;30;46667;-82
2021/07/16 15:40:36;;;;;;;;;9.00;8.75;;;;;;;;4672704;30;46987;-80
2021/07/16 15:43:01;;;;;;;;;12.25;11.00;;;;;;;;4670819;30;45812;-80
2021/07/16 15:45:27;;;;;;;;;12.00;9.00;;;;;;;;4684203;30;47335;-80
2021/07/16 15:47:53;;;;;;;;;13.50;10.50;;;;;;;;4687338;30;45830;-81
2021/07/16 15:50:18;;;;;;;;;11.75;8.25;;;;;;;;4673697;30;45443;-80
2021/07/16 15:52:44;;;;;;;;;8.75;8.50;;;;;;;;4671406;30;45537;-81
2021/07/16 15:55:10;;;;;;;;;9.25;7.00;;;;;;;;4685676;30;46088;-81
2021/07/16 15:57:36;;;;;;;;;13.00;9.75;;;;;;;;4670059;30;45546;-80
2021/07/16 16:00:04;;;;;;;;;8.50;8.50;;;;;;;;4676097;30;45526;-80
2021/07/16 16:02:29;;;;;;;;;10.25;8.75;;;;;;;;4674597;30;45587;-81
2021/07/16 16:04:55;;;;;;;;;9.25;7.00;;;;;;;;4737448;25;47585;-94
2021/07/16 16:07:20;;;;;;;;;9.25;8.00;;;;;;;;4695594;30;45467;-93
2021/07/16 16:09:46;;;;;;;;;10.00;8.25;;;;;;;;4677661;30;45390;-95
2021/07/16 16:12:11;;;;;;;;;11.00;10.00;;;;;;;;4690640;30;45451;-94
2021/07/16 16:14:36;;;;;;;;;9.75;8.00;;;;;;;;4692486;30;47276;-95
2021/07/16 16:17:05;;;;;;;;;11.67;8.33;;;;;;;;4680411;30;45333;-96
2021/07/16 16:19:30;;;;;;;;;9.75;9.00;;;;;;;;4697768;30;46686;-94
2021/07/16 16:22:28;;;;;;;;;9.00;8.50;;;;;;;;4719780;24;45393;-79
2021/07/16 16:24:54;;;;;;;;;11.50;9.00;;;;;;;;4648579;30;47544;-79
2021/07/16 16:27:20;;;;;;;;;9.00;8.25;;;;;;;;4670364;30;45984;-79
2021/07/16 16:29:45;;;;;;;;;13.25;10.75;;;;;;;;4670785;30;45502;-79
2021/07/16 16:32:15;;;;;;;;;15.25;13.00;;;;;;;;4664418;30;45454;-79
2021/07/16 16:34:40;;;;;;;;;12.00;9.50;;;;;;;;4662565;30;53038;-79
2021/07/16 16:37:08;;;;;;;;;12.75;9.00;;;;;;;;4654608;30;45581;-79
2021/07/16 16:39:33;;;;;;;;;11.75;10.00;;;;;;;;4671132;30;50626;-79
2021/07/16 16:41:58;;;;;;;;;12.75;10.25;;;;;;;;4676079;30;45565;-79
2021/07/16 16:44:36;;;;;;;;;11.75;11.25;;;;;;;;4671054;30;45579;-79
2021/07/16 16:47:02;;;;;;;;;11.25;8.75;;;;;;;;4667698;30;45569;-79
2021/07/16 16:49:27;;;;;;;;;9.50;7.75;;;;;;;;4662756;30;45538;-79
2021/07/16 16:51:53;;;;;;;;;12.75;9.00;;;;;;;;4672713;30;45633;-79
2021/07/16 16:54:19;;;;;;;;;12.75;10.50;;;;;;;;4663574;30;48561;-79
2021/07/16 16:56:44;;;;;;;;;12.50;9.25;;;;;;;;4670084;30;45514;-78
2021/07/16 16:59:09;;;;;;;;;13.25;12.00;;;;;;;;4654681;30;46019;-81
2021/07/16 17:01:37;;;;;;;;;18.75;11.50;;;;;;;;4672352;30;45707;-80
2021/07/16 17:04:03;;;;;;;;;12.00;10.00;;;;;;;;4652138;30;46487;-79
2021/07/16 17:09:47;;;;;;;;;12.25;9.75;;;;;;;;4615119;30;45496;-80
2021/07/16 17:12:12;;;;;;;;;15.00;11.25;;;;;;;;4587101;30;45714;-79
2021/07/16 17:14:38;;;;;;;;;13.00;11.25;;;;;;;;4598741;30;46069;-79
2021/07/16 17:17:03;;;;;;;;;14.00;11.75;;;;;;;;4605192;30;45594;-79
2021/07/16 17:27:14;;;;;;;;;12.00;10.50;;;;;;;;1327656;28;46790;-82
2021/07/16 17:29:42;;;;;;;;;12.50;11.00;;;;;;;;4688645;30;45579;-82
2021/07/16 17:44:21;;;;;;;;;46.25;34.75;;;;;;;;4851660;24;45989;-94
2021/07/16 17:46:46;;;;;;;;;19.25;16.25;;;;;;;;4700086;30;45571;-95
2021/07/16 17:49:12;;;;;;;;;14.50;13.75;;;;;;;;4698720;30;45438;-92
2021/07/16 17:57:00;;;;;;;;;16.00;11.25;;;;;;;;4693241;30;45571;-80
2021/07/16 18:07:04;;;;;;;;;16.50;11.50;;;;;;;;4757785;24;45506;-94
2021/07/16 18:09:29;;;;;;;;;10.75;10.25;;;;;;;;4708608;30;45480;-95
2021/07/16 18:11:55;;;;;;;;;13.75;12.00;;;;;;;;4713063;29;45467;-94
2021/07/16 18:14:20;;;;;;;;;14.00;12.67;;;;;;;;4757533;25;45863;-93
2021/07/16 18:16:45;;;;;;;;;16.75;14.25;;;;;;;;4708951;30;45595;-92
2021/07/16 18:19:10;;;;;;;;;15.67;12.67;;;;;;;;4699826;30;45129;-93
2021/07/16 18:21:36;;;;;;;;;11.67;11.67;;;;;;;;4705577;30;45396;-92
2021/07/16 18:24:01;;;;;;;;;15.75;11.00;;;;;;;;4692849;30;45608;-92
2021/07/16 18:26:27;;;;;;;;;16.50;12.25;;;;;;;;4706977;30;45848;-94
2021/07/16 18:34:03;;;;;;;;;12.25;10.50;;;;;;;;5086621;24;45455;-94
2021/07/16 19:01:00;;;;;;;;;19.50;15.00;;;;;;;;4680051;30;45715;-92
2021/07/16 19:03:26;;;;;;;;;18.25;16.50;;;;;;;;4681935;30;45370;-94
2021/07/16 19:05:52;;;;;;;;;14.75;14.75;;;;;;;;4676691;30;45611;-93
2021/07/16 19:08:17;;;;;;;;;14.75;14.00;;;;;;;;4662340;30;47200;-93
2021/07/16 19:18:53;;;;;;;;;16.25;15.00;;;;;;;;5364459;24;45876;-78
2021/07/16 19:21:44;;;;;;;;;13.75;13.00;;;;;;;;4677092;30;45590;-79
2021/07/16 19:24:10;;;;;;;;;18.50;15.75;;;;;;;;4698019;30;45672;-78
2021/07/16 19:26:35;;;;;;;;;13.50;12.00;;;;;;;;4684897;30;45545;-77
2021/07/16 19:29:21;;;;;;;;;19.25;16.25;;;;;;;;4685714;30;46420;-77
2021/07/16 19:31:46;;;;;;;;;19.00;15.25;;;;;;;;4689072;30;45663;-76
2021/07/16 19:34:36;;;;;;;;;19.25;13.75;;;;;;;;4680459;30;45763;-79
2021/07/16 19:37:05;;;;;;;;;14.50;14.00;;;;;;;;4672677;30;45629;-77
2021/07/16 19:39:38;;;;;;;;;17.00;15.25;;;;;;;;4669130;30;47351;-77
2021/07/16 19:42:12;;;;;;;;;19.25;16.00;;;;;;;;4695159;30;45946;-77
2021/07/16 19:44:37;;;;;;;;;16.50;15.00;;;;;;;;4689817;30;45852;-77
2021/07/16 19:47:02;;;;;;;;;18.00;14.50;;;;;;;;4688963;30;45863;-77
2021/07/16 19:49:30;;;;;;;;;19.75;14.75;;;;;;;;4687928;30;46085;-76
2021/07/16 19:51:58;;;;;;;;;17.50;16.25;;;;;;;;4682531;30;47256;-77
2021/07/16 19:54:26;;;;;;;;;19.00;16.00;;;;;;;;4682471;30;45644;-78
2021/07/16 19:56:54;;;;;;;;;18.00;16.50;;;;;;;;4679117;30;45607;-77
2021/07/16 19:59:21;;;;;;;;;19.75;15.00;;;;;;;;4685223;30;45592;-77
2021/07/16 20:01:46;;;;;;;;;18.50;16.00;;;;;;;;4683178;30;45713;-77
2021/07/16 20:04:12;;;;;;;;;18.75;18.50;;;;;;;;4669873;30;45676;-77
2021/07/16 20:06:43;;;;;;;;;20.00;16.25;;;;;;;;4674647;30;45592;-77
2021/07/16 20:09:19;;;;;;;;;16.00;14.50;;;;;;;;4680142;30;45680;-77
2021/07/16 20:11:47;;;;;;;;;16.00;14.00;;;;;;;;4675367;30;46084;-76
2021/07/16 20:14:13;;;;;;;;;17.50;15.50;;;;;;;;4672463;30;45455;-77
2021/07/16 20:16:38;;;;;;;;;16.00;13.75;;;;;;;;4687491;30;45173;-77
2021/07/16 20:19:03;;;;;;;;;20.75;15.75;;;;;;;;4676550;30;47737;-77
2021/07/16 20:21:29;;;;;;;;;18.25;16.00;;;;;;;;4676092;30;45648;-77
2021/07/16 20:23:59;;;;;;;;;16.75;14.50;;;;;;;;4696979;30;45641;-77
2021/07/16 20:26:28;;;;;;;;;16.00;14.75;;;;;;;;4683476;30;45585;-77
2021/07/16 20:28:59;;;;;;;;;18.00;14.75;;;;;;;;4685316;30;45828;-77
2021/07/16 20:31:25;;;;;;;;;18.50;16.75;;;;;;;;4692283;30;45750;-78